Time;durP1;ratioP1;P1;durP2;ratioP2;P2;SDS_P1;SDS_P2;PMS_P1;PMS_P2;Temp;Humidity;BMP_temperature;BMP_pressure;BME280_temperature;BME280_humidity;BME280_pressure;Samples;Min_cycle;Max_cycle;Signal;HPM_P1;HPM_P2
2022/09/18 00:02:12;;;;;;;1999.90;999.90;;;8.50;99.90;;;;;;5086100;28;20449;-66
2022/09/18 00:04:38;;;;;;;1999.90;999.90;;;8.50;99.90;;;;;;5090434;28;20072;-66
2022/09/18 00:07:04;;;;;;;1999.90;999.90;;;8.50;99.90;;;;;;5067535;28;20067;-66
2022/09/18 00:09:29;;;;;;;1999.90;999.90;;;8.50;99.90;;;;;;5090745;28;20071;-66
2022/09/18 00:11:55;;;;;;;1999.90;999.90;;;8.60;99.90;;;;;;5090449;28;20036;-66
2022/09/18 00:14:22;;;;;;;1999.90;999.90;;;8.60;99.90;;;;;;5089677;28;20040;-66
2022/09/18 00:16:48;;;;;;;1999.90;999.90;;;8.70;99.90;;;;;;5055102;28;20127;-66
2022/09/18 00:19:15;;;;;;;1999.90;999.90;;;8.80;99.90;;;;;;5089773;28;20477;-65
2022/09/18 00:21:46;;;;;;;1999.90;999.90;;;8.90;99.90;;;;;;5057111;28;20040;-66
2022/09/18 00:24:12;;;;;;;1999.90;999.90;;;9.00;99.90;;;;;;5098182;28;20402;-66
2022/09/18 00:26:38;;;;;;;1999.90;999.90;;;9.00;99.90;;;;;;5091019;28;20093;-66
2022/09/18 00:29:04;;;;;;;1999.90;999.90;;;9.10;99.90;;;;;;5068674;28;20075;-66
2022/09/18 00:31:32;;;;;;;1999.90;999.90;;;9.10;99.90;;;;;;5090461;28;20060;-66
2022/09/18 00:34:01;;;;;;;1999.90;999.90;;;9.10;99.90;;;;;;5078943;28;20071;-66
2022/09/18 00:36:28;;;;;;;1999.90;999.90;;;9.10;99.90;;;;;;5088993;28;20120;-66
2022/09/18 00:38:55;;;;;;;1999.90;999.90;;;9.10;99.90;;;;;;5095333;28;20150;-66
2022/09/18 00:41:26;;;;;;;1999.90;999.90;;;9.10;99.90;;;;;;5086930;28;20411;-66
2022/09/18 00:44:28;;;;;;;1999.90;999.90;;;9.10;99.90;;;;;;5089948;28;20047;-66
2022/09/18 00:46:56;;;;;;;1999.90;999.90;;;9.00;99.90;;;;;;5082307;28;20039;-65
2022/09/18 00:49:25;;;;;;;1999.90;999.90;;;9.00;99.90;;;;;;5088635;28;20117;-66
2022/09/18 00:51:54;;;;;;;1999.90;999.90;;;9.00;99.90;;;;;;5058833;28;20582;-66
2022/09/18 00:54:36;;;;;;;1999.90;999.90;;;8.90;99.90;;;;;;5045510;28;20048;-66
2022/09/18 00:57:06;;;;;;;1999.90;999.90;;;8.90;99.90;;;;;;5050958;28;20122;-66
2022/09/18 00:59:35;;;;;;;1999.90;999.90;;;8.90;99.90;;;;;;5077616;28;20046;-66
2022/09/18 01:02:01;;;;;;;1999.90;999.90;;;9.00;99.90;;;;;;5069702;28;20040;-66
2022/09/18 01:04:28;;;;;;;1999.90;999.90;;;9.10;99.90;;;;;;5090427;28;20043;-65
2022/09/18 01:07:08;;;;;;;1999.90;999.90;;;9.10;99.90;;;;;;5064159;28;20050;-66
2022/09/18 01:09:56;;;;;;;1999.90;999.90;;;9.20;99.90;;;;;;5071788;28;20150;-66
2022/09/18 01:12:41;;;;;;;1999.90;999.90;;;9.30;99.90;;;;;;5070898;28;20487;-66
2022/09/18 01:15:28;;;;;;;1999.90;999.90;;;9.40;99.90;;;;;;5067764;28;20503;-66
2022/09/18 01:18:09;;;;;;;1999.90;999.90;;;9.50;99.90;;;;;;5092713;28;20039;-66
2022/09/18 01:21:06;;;;;;;1999.90;999.90;;;9.60;99.90;;;;;;5075186;28;20105;-65
2022/09/18 01:23:59;;;;;;;1999.90;999.90;;;9.60;99.90;;;;;;5070931;28;20083;-66
2022/09/18 01:26:55;;;;;;;1999.90;999.90;;;9.70;99.90;;;;;;5065241;28;20540;-66
2022/09/18 01:29:43;;;;;;;1999.90;999.90;;;9.70;99.90;;;;;;5059025;28;20059;-65
2022/09/18 01:32:29;;;;;;;1999.90;999.90;;;9.70;99.90;;;;;;5092440;28;20067;-66
2022/09/18 01:35:05;;;;;;;1999.90;999.90;;;9.70;99.90;;;;;;5089464;28;20048;-66
2022/09/18 01:37:55;;;;;;;1999.90;999.90;;;9.60;99.90;;;;;;5089942;28;20388;-66
2022/09/18 01:40:29;;;;;;;1999.90;999.90;;;9.60;99.90;;;;;;5055584;28;20055;-66
2022/09/18 01:42:58;;;;;;;1999.90;999.90;;;9.50;99.90;;;;;;5081514;28;20444;-66
2022/09/18 01:45:28;;;;;;;1999.90;999.90;;;9.50;99.90;;;;;;5071860;28;20086;-66
2022/09/18 01:47:58;;;;;;;1999.90;999.90;;;9.50;99.90;;;;;;5055430;28;20031;-66
2022/09/18 01:50:29;;;;;;;1999.90;999.90;;;9.50;99.90;;;;;;5078406;28;20072;-65
2022/09/18 01:53:07;;;;;;;1999.90;999.90;;;9.50;99.90;;;;;;5076910;28;20404;-66
2022/09/18 01:55:35;;;;;;;1999.90;999.90;;;9.50;99.90;;;;;;5070614;28;20059;-66
2022/09/18 01:58:08;;;;;;;1999.90;999.90;;;9.50;99.90;;;;;;5089660;28;20380;-66
2022/09/18 02:00:37;;;;;;;1999.90;999.90;;;9.50;99.90;;;;;;5065905;28;20032;-66
2022/09/18 02:03:08;;;;;;;1999.90;999.90;;;9.50;99.90;;;;;;5054529;28;20044;-66
2022/09/18 02:06:00;;;;;;;1999.90;999.90;;;9.50;99.90;;;;;;5053761;28;20047;-66
2022/09/18 02:08:31;;;;;;;1999.90;999.90;;;9.50;99.90;;;;;;5071938;28;20044;-66
2022/09/18 02:11:07;;;;;;;1999.90;999.90;;;9.50;99.90;;;;;;5083542;28;20043;-66
2022/09/18 02:13:46;;;;;;;1999.90;999.90;;;9.50;99.90;;;;;;5072267;28;20079;-66
2022/09/18 02:16:20;;;;;;;1999.90;999.90;;;9.60;99.90;;;;;;5067520;28;20072;-66
2022/09/18 02:18:50;;;;;;;1999.90;999.90;;;9.60;99.90;;;;;;5068720;28;20083;-66
2022/09/18 02:21:21;;;;;;;1999.90;999.90;;;9.60;99.90;;;;;;5090446;28;20478;-66
2022/09/18 02:23:47;;;;;;;1999.90;999.90;;;9.70;99.90;;;;;;5090365;28;20119;-66
2022/09/18 02:26:15;;;;;;;1999.90;999.90;;;9.70;99.90;;;;;;5068985;28;20066;-66
2022/09/18 02:28:42;;;;;;;1999.90;999.90;;;9.70;99.90;;;;;;5069747;28;20411;-66
2022/09/18 02:31:09;;;;;;;1999.90;999.90;;;9.70;99.90;;;;;;5088291;28;20052;-66
2022/09/18 02:33:36;;;;;;;1999.90;999.90;;;9.70;99.90;;;;;;5062916;28;20078;-66
2022/09/18 02:36:30;;;;;;;1999.90;999.90;;;9.80;99.90;;;;;;5032743;28;20029;-66
2022/09/18 02:39:13;;;;;;;1999.90;999.90;;;9.80;99.90;;;;;;5039451;28;20051;-66
2022/09/18 02:42:07;;;;;;;1999.90;999.90;;;9.80;99.90;;;;;;5073048;28;20121;-66
2022/09/18 02:44:50;;;;;;;1999.90;999.90;;;9.80;99.90;;;;;;5054496;28;20434;-66
2022/09/18 02:47:37;;;;;;;1999.90;999.90;;;9.80;99.90;;;;;;5086129;28;20036;-66
2022/09/18 02:50:17;;;;;;;1999.90;999.90;;;9.80;99.90;;;;;;5061750;28;20055;-66
2022/09/18 02:52:52;;;;;;;1999.90;999.90;;;9.90;99.90;;;;;;5051150;28;20400;-66
2022/09/18 02:55:22;;;;;;;1999.90;999.90;;;9.90;99.90;;;;;;5069997;28;20059;-66
2022/09/18 02:58:02;;;;;;;1999.90;999.90;;;9.90;99.90;;;;;;5087574;28;20040;-66
2022/09/18 03:00:30;;;;;;;1999.90;999.90;;;9.90;99.90;;;;;;5101459;28;20088;-66
2022/09/18 03:02:57;;;;;;;1999.90;999.90;;;9.90;99.90;;;;;;5059999;28;20095;-66
2022/09/18 03:05:24;;;;;;;1999.90;999.90;;;10.00;99.90;;;;;;5077788;28;20036;-66
2022/09/18 03:07:50;;;;;;;1999.90;999.90;;;10.00;99.90;;;;;;5064028;28;20045;-66
2022/09/18 03:10:16;;;;;;;1999.90;999.90;;;10.00;99.90;;;;;;5077294;28;20039;-66
2022/09/18 03:12:41;;;;;;;1999.90;999.90;;;10.10;99.90;;;;;;5069527;28;20047;-66
2022/09/18 03:15:07;;;;;;;1999.90;999.90;;;10.00;99.90;;;;;;5060810;28;20036;-66
2022/09/18 03:17:33;;;;;;;1999.90;999.90;;;10.10;99.90;;;;;;5090535;28;20028;-66
2022/09/18 03:19:58;;;;;;;1999.90;999.90;;;10.10;99.90;;;;;;5051574;28;20033;-66
2022/09/18 03:22:24;;;;;;;1999.90;999.90;;;10.10;99.90;;;;;;5058842;28;20115;-66
2022/09/18 03:24:50;;;;;;;1999.90;999.90;;;10.10;99.90;;;;;;5075903;28;20055;-66
2022/09/18 03:27:16;;;;;;;1999.90;999.90;;;10.10;99.90;;;;;;5060826;28;20048;-66
2022/09/18 03:29:44;;;;;;;1999.90;999.90;;;10.10;99.90;;;;;;5088583;28;20036;-66
2022/09/18 03:32:10;;;;;;;1999.90;999.90;;;10.10;99.90;;;;;;5064727;28;20045;-66
2022/09/18 03:34:37;;;;;;;1999.90;999.90;;;10.10;99.90;;;;;;5070194;28;20041;-66
2022/09/18 03:37:02;;;;;;;1999.90;999.90;;;10.10;99.90;;;;;;5082872;28;20729;-66
2022/09/18 03:39:28;;;;;;;1999.90;999.90;;;10.00;99.90;;;;;;5087804;28;20165;-66
2022/09/18 03:41:54;;;;;;;1999.90;999.90;;;10.00;99.90;;;;;;5083588;28;20032;-66
2022/09/18 03:44:19;;;;;;;1999.90;999.90;;;10.00;99.90;;;;;;5075192;28;20040;-66
2022/09/18 03:46:45;;;;;;;1999.90;999.90;;;10.00;99.90;;;;;;5073427;28;20514;-66
2022/09/18 03:49:10;;;;;;;1999.90;999.90;;;9.90;99.90;;;;;;5069204;28;20126;-66
2022/09/18 03:51:36;;;;;;;1999.90;999.90;;;10.00;99.90;;;;;;5085532;28;20522;-66
2022/09/18 03:54:02;;;;;;;1999.90;999.90;;;10.00;99.90;;;;;;5083980;28;20127;-66
2022/09/18 03:56:28;;;;;;;1999.90;999.90;;;10.00;99.90;;;;;;5091164;28;20379;-66
2022/09/18 03:58:53;;;;;;;1999.90;999.90;;;9.90;99.90;;;;;;5083221;28;20189;-66
2022/09/18 04:01:19;;;;;;;1999.90;999.90;;;9.90;99.90;;;;;;5095749;28;20710;-66
2022/09/18 04:03:44;;;;;;;1999.90;999.90;;;9.90;99.90;;;;;;5055797;28;20054;-66
2022/09/18 04:06:10;;;;;;;1999.90;999.90;;;9.90;99.90;;;;;;5070367;28;20051;-66
2022/09/18 04:08:37;;;;;;;1999.90;999.90;;;9.90;99.90;;;;;;5065057;28;20047;-66
2022/09/18 04:11:04;;;;;;;1999.90;999.90;;;9.90;99.90;;;;;;5090970;28;20135;-66
2022/09/18 04:13:30;;;;;;;1999.90;999.90;;;9.80;99.90;;;;;;5078035;28;20522;-66
2022/09/18 04:15:56;;;;;;;1999.90;999.90;;;9.80;99.90;;;;;;5067215;28;20040;-66
2022/09/18 04:18:22;;;;;;;1999.90;999.90;;;9.80;99.90;;;;;;5082205;28;20032;-66
2022/09/18 04:20:49;;;;;;;1999.90;999.90;;;9.80;99.90;;;;;;5089746;28;20036;-66
2022/09/18 04:23:15;;;;;;;1999.90;999.90;;;9.80;99.90;;;;;;5067963;28;20058;-66
2022/09/18 04:25:41;;;;;;;1999.90;999.90;;;9.70;99.90;;;;;;5100570;28;20039;-66
2022/09/18 04:28:07;;;;;;;1999.90;999.90;;;9.80;99.90;;;;;;5073837;28;20641;-66
2022/09/18 04:30:33;;;;;;;1999.90;999.90;;;9.80;99.90;;;;;;5072233;28;20047;-66
2022/09/18 04:32:58;;;;;;;1999.90;999.90;;;9.80;99.90;;;;;;5090757;28;20047;-66
2022/09/18 04:35:24;;;;;;;1999.90;999.90;;;9.90;99.90;;;;;;5098181;28;20098;-66
2022/09/18 04:37:50;;;;;;;1999.90;999.90;;;9.90;99.90;;;;;;5085128;28;20089;-66
2022/09/18 04:40:16;;;;;;;1999.90;999.90;;;9.90;99.90;;;;;;5095980;28;20102;-66
2022/09/18 04:42:41;;;;;;;1999.90;999.90;;;10.00;99.90;;;;;;5078634;28;20148;-66
2022/09/18 04:45:07;;;;;;;1999.90;999.90;;;10.00;99.90;;;;;;5049475;28;20036;-66
2022/09/18 04:47:33;;;;;;;1999.90;999.90;;;10.00;99.90;;;;;;5090742;28;20173;-66
2022/09/18 04:49:58;;;;;;;1999.90;999.90;;;10.00;99.90;;;;;;5091787;28;20107;-66
2022/09/18 04:52:25;;;;;;;1999.90;999.90;;;10.00;99.90;;;;;;5088973;28;20261;-66
2022/09/18 04:54:50;;;;;;;1999.90;999.90;;;10.00;99.90;;;;;;5090214;28;20048;-66
2022/09/18 04:57:16;;;;;;;1999.90;999.90;;;10.10;99.90;;;;;;5054576;28;20046;-66
2022/09/18 04:59:41;;;;;;;1999.90;999.90;;;10.10;99.90;;;;;;5072684;28;20042;-66
2022/09/18 05:02:07;;;;;;;1999.90;999.90;;;10.10;99.90;;;;;;5071128;28;20093;-66
2022/09/18 05:04:33;;;;;;;1999.90;999.90;;;10.20;99.90;;;;;;5079422;28;20135;-66
2022/09/18 05:06:58;;;;;;;1999.90;999.90;;;10.20;99.90;;;;;;5063579;28;20044;-66
2022/09/18 05:09:24;;;;;;;1999.90;999.90;;;10.20;99.90;;;;;;5092126;28;20047;-66
2022/09/18 05:11:50;;;;;;;1999.90;999.90;;;10.30;99.90;;;;;;5098755;28;20115;-66
2022/09/18 05:14:15;;;;;;;1999.90;999.90;;;10.30;99.90;;;;;;5088120;28;20160;-66
2022/09/18 05:16:41;;;;;;;1999.90;999.90;;;10.30;99.90;;;;;;5087524;28;20043;-66
2022/09/18 05:19:07;;;;;;;1999.90;999.90;;;10.30;99.90;;;;;;5088623;28;20031;-66
2022/09/18 05:21:32;;;;;;;1999.90;999.90;;;10.40;99.90;;;;;;5066271;28;20119;-66
2022/09/18 05:23:58;;;;;;;1999.90;999.90;;;10.40;99.90;;;;;;5047704;28;20127;-66
2022/09/18 05:26:25;;;;;;;1999.90;999.90;;;10.50;99.90;;;;;;5088907;28;20032;-66
2022/09/18 05:28:51;;;;;;;1999.90;999.90;;;10.50;99.90;;;;;;5073237;28;20047;-66
2022/09/18 05:31:16;;;;;;;1999.90;999.90;;;10.50;99.90;;;;;;5086070;28;20435;-66
2022/09/18 05:33:42;;;;;;;1999.90;999.90;;;10.50;99.90;;;;;;5090706;28;20044;-66
2022/09/18 05:36:08;;;;;;;1999.90;999.90;;;10.50;99.90;;;;;;5082776;28;20038;-66
2022/09/18 05:38:33;;;;;;;1999.90;999.90;;;10.50;99.90;;;;;;5071012;28;20036;-66
2022/09/18 05:41:00;;;;;;;1999.90;999.90;;;10.50;99.90;;;;;;5039575;28;20785;-66
2022/09/18 05:43:26;;;;;;;1999.90;999.90;;;10.50;99.90;;;;;;5050236;28;20052;-67
2022/09/18 05:45:52;;;;;;;1999.90;999.90;;;10.50;99.90;;;;;;5102948;28;20046;-66
2022/09/18 05:48:18;;;;;;;1999.90;999.90;;;10.50;99.90;;;;;;5078898;28;20495;-66
2022/09/18 05:50:43;;;;;;;1999.90;999.90;;;10.50;99.90;;;;;;5083648;28;20121;-66
2022/09/18 05:53:14;;;;;;;1999.90;999.90;;;10.50;99.90;;;;;;5066089;28;20509;-66
2022/09/18 05:55:40;;;;;;;1999.90;999.90;;;10.50;99.90;;;;;;5079589;28;20677;-66
2022/09/18 05:58:10;;;;;;;1999.90;999.90;;;10.50;99.90;;;;;;5066334;28;20036;-66
2022/09/18 06:00:36;;;;;;;1999.90;999.90;;;10.50;99.90;;;;;;5071248;28;20391;-66
2022/09/18 06:03:05;;;;;;;1999.90;999.90;;;10.60;99.90;;;;;;5045567;28;20127;-66
2022/09/18 06:05:32;;;;;;;1999.90;999.90;;;10.60;99.90;;;;;;5077637;28;20052;-66
2022/09/18 06:07:59;;;;;;;1999.90;999.90;;;10.60;99.90;;;;;;5046596;28;20090;-66
2022/09/18 06:10:26;;;;;;;1999.90;999.90;;;10.60;99.90;;;;;;5063176;28;20133;-66
2022/09/18 06:13:14;;;;;;;1999.90;999.90;;;10.60;99.90;;;;;;5067345;28;20488;-66
2022/09/18 06:15:50;;;;;;;1999.90;999.90;;;10.60;99.90;;;;;;5063713;28;20055;-66
2022/09/18 06:18:16;;;;;;;1999.90;999.90;;;10.70;99.90;;;;;;5076414;28;20036;-66
2022/09/18 06:20:43;;;;;;;1999.90;999.90;;;10.70;99.90;;;;;;5072040;28;20036;-66
2022/09/18 06:23:09;;;;;;;1999.90;999.90;;;10.70;99.90;;;;;;5086628;28;20043;-66
2022/09/18 06:25:35;;;;;;;1999.90;999.90;;;10.70;99.90;;;;;;5052476;28;20044;-66
2022/09/18 06:28:01;;;;;;;1999.90;999.90;;;10.70;99.90;;;;;;5075511;28;20047;-66
2022/09/18 06:30:32;;;;;;;1999.90;999.90;;;10.70;99.90;;;;;;5070383;28;20048;-66
2022/09/18 06:33:06;;;;;;;1999.90;999.90;;;10.70;99.90;;;;;;5066171;28;20789;-66
2022/09/18 06:35:33;;;;;;;1999.90;999.90;;;10.70;99.90;;;;;;5077630;28;20051;-66
2022/09/18 06:38:03;;;;;;;1999.90;999.90;;;10.70;99.90;;;;;;5086189;28;20105;-66
2022/09/18 06:40:30;;;;;;;1999.90;999.90;;;10.70;99.90;;;;;;5067942;28;20058;-66
2022/09/18 06:42:57;;;;;;;1999.90;999.90;;;10.80;99.90;;;;;;5077402;28;20048;-66
2022/09/18 06:45:24;;;;;;;1999.90;999.90;;;10.70;99.90;;;;;;5082368;28;20051;-66
2022/09/18 06:47:53;;;;;;;1999.90;999.90;;;10.80;99.90;;;;;;5055707;28;20093;-66
2022/09/18 06:50:22;;;;;;;1999.90;999.90;;;10.80;99.90;;;;;;5056119;28;20663;-66
2022/09/18 06:52:48;;;;;;;1999.90;999.90;;;10.80;99.90;;;;;;5088749;28;20033;-66
2022/09/18 06:55:15;;;;;;;1999.90;999.90;;;10.90;99.90;;;;;;5077130;28;20079;-66
2022/09/18 06:57:41;;;;;;;1999.90;999.90;;;10.80;99.90;;;;;;5088298;28;20433;-66
2022/09/18 07:00:08;;;;;;;1999.90;999.90;;;10.90;99.90;;;;;;5089356;28;20036;-66
2022/09/18 07:02:33;;;;;;;1999.90;999.90;;;10.90;99.90;;;;;;5045256;28;20039;-66
2022/09/18 07:04:59;;;;;;;1999.90;999.90;;;10.90;99.90;;;;;;5069896;28;20043;-66
2022/09/18 07:07:25;;;;;;;1999.90;999.90;;;10.90;99.90;;;;;;5087345;28;20048;-66
2022/09/18 07:09:50;;;;;;;1999.90;999.90;;;10.90;99.90;;;;;;5064796;28;20039;-66
2022/09/18 07:12:16;;;;;;;1999.90;999.90;;;10.90;99.90;;;;;;5087514;28;20126;-66
2022/09/18 07:14:41;;;;;;;1999.90;999.90;;;11.00;99.90;;;;;;5094550;28;20036;-66
2022/09/18 07:17:09;;;;;;;1999.90;999.90;;;11.00;99.90;;;;;;5068688;28;20047;-66
2022/09/18 07:19:34;;;;;;;1999.90;999.90;;;10.90;99.90;;;;;;5083232;28;20520;-66
2022/09/18 07:22:00;;;;;;;1999.90;999.90;;;11.00;99.90;;;;;;5048850;28;20036;-66
2022/09/18 07:24:25;;;;;;;1999.90;999.90;;;10.90;99.90;;;;;;5051604;28;20055;-66
2022/09/18 07:26:51;;;;;;;1999.90;999.90;;;10.90;99.90;;;;;;5089489;28;20044;-66
2022/09/18 07:29:16;;;;;;;1999.90;999.90;;;10.90;99.90;;;;;;5061256;28;20044;-66
2022/09/18 07:31:42;;;;;;;1999.90;999.90;;;10.90;99.90;;;;;;5091806;28;20052;-66
2022/09/18 07:34:08;;;;;;;1999.90;999.90;;;10.90;99.90;;;;;;5090616;28;20052;-66
2022/09/18 07:36:33;;;;;;;1999.90;999.90;;;10.90;99.90;;;;;;5090057;28;20032;-66
2022/09/18 07:38:59;;;;;;;1999.90;999.90;;;10.90;99.90;;;;;;5090675;28;20800;-66
2022/09/18 07:41:25;;;;;;;1999.90;999.90;;;10.80;99.90;;;;;;5069367;28;20047;-66
2022/09/18 07:43:51;;;;;;;1999.90;999.90;;;10.80;99.90;;;;;;5097691;28;20476;-67
2022/09/18 07:46:16;;;;;;;1999.90;999.90;;;10.80;99.90;;;;;;5076238;28;20086;-66
2022/09/18 07:48:42;;;;;;;1999.90;999.90;;;10.80;99.90;;;;;;5087574;28;20086;-66
2022/09/18 07:51:08;;;;;;;1999.90;999.90;;;10.90;99.90;;;;;;5091507;28;20047;-66
2022/09/18 07:53:34;;;;;;;1999.90;999.90;;;10.90;99.90;;;;;;5066650;28;20100;-66
2022/09/18 07:56:00;;;;;;;1999.90;999.90;;;10.90;99.90;;;;;;5070314;28;20161;-67
2022/09/18 07:58:25;;;;;;;1999.90;999.90;;;11.00;99.90;;;;;;5078244;28;20123;-67
2022/09/18 08:00:51;;;;;;;1999.90;999.90;;;11.00;99.90;;;;;;5073272;28;20044;-67
2022/09/18 08:03:17;;;;;;;1999.90;999.90;;;11.10;99.90;;;;;;5069449;28;20052;-66
2022/09/18 08:05:43;;;;;;;1999.90;999.90;;;11.10;99.90;;;;;;5071342;28;20040;-67
2022/09/18 08:08:11;;;;;;;1999.90;999.90;;;11.20;99.90;;;;;;5084822;28;20032;-66
2022/09/18 08:10:38;;;;;;;1999.90;999.90;;;11.20;99.90;;;;;;5089508;28;20051;-67
2022/09/18 08:13:05;;;;;;;1999.90;999.90;;;11.20;99.90;;;;;;5069886;28;20044;-67
2022/09/18 08:15:32;;;;;;;1999.90;999.90;;;11.20;99.90;;;;;;5073275;28;20043;-67
2022/09/18 08:17:58;;;;;;;1999.90;999.90;;;11.10;99.90;;;;;;5094075;28;20044;-66
2022/09/18 08:20:23;;;;;;;1999.90;999.90;;;11.10;99.90;;;;;;5091237;28;20036;-67
2022/09/18 08:22:49;;;;;;;1999.90;999.90;;;11.10;99.90;;;;;;5089678;28;20133;-66
2022/09/18 08:25:16;;;;;;;1999.90;999.90;;;11.20;99.90;;;;;;5062905;28;20044;-66
2022/09/18 08:27:41;;;;;;;1999.90;999.90;;;11.10;99.90;;;;;;5095705;28;20036;-67
2022/09/18 08:30:09;;;;;;;1999.90;999.90;;;11.10;99.90;;;;;;5081574;28;20040;-67
2022/09/18 08:32:35;;;;;;;1999.90;999.90;;;11.10;99.90;;;;;;5078419;28;20053;-67
2022/09/18 08:35:01;;;;;;;1999.90;999.90;;;11.10;99.90;;;;;;5084361;28;20093;-67
2022/09/18 08:37:28;;;;;;;1999.90;999.90;;;11.10;99.90;;;;;;5086896;28;20044;-67
2022/09/18 08:39:54;;;;;;;1999.90;999.90;;;11.10;99.90;;;;;;5068673;28;20040;-67
2022/09/18 08:42:40;;;;;;;1999.90;999.90;;;11.10;99.90;;;;;;5058810;28;20048;-67
2022/09/18 08:45:35;;;;;;;1999.90;999.90;;;11.00;99.90;;;;;;5051280;28;20051;-67
2022/09/18 08:48:13;;;;;;;1999.90;999.90;;;11.10;99.90;;;;;;5064966;28;20149;-66
2022/09/18 08:50:42;;;;;;;1999.90;999.90;;;11.10;99.90;;;;;;5074199;28;20111;-66
2022/09/18 08:53:19;;;;;;;1999.90;999.90;;;11.00;99.90;;;;;;5047579;28;20093;-66
2022/09/18 08:55:47;;;;;;;1999.90;999.90;;;11.10;99.90;;;;;;5084199;28;20040;-66
2022/09/18 08:58:26;;;;;;;1999.90;999.90;;;11.10;99.90;;;;;;5076968;28;20072;-67
2022/09/18 09:01:08;;;;;;;1999.90;999.90;;;11.10;99.90;;;;;;5054190;28;20111;-67
2022/09/18 09:03:49;;;;;;;1999.90;999.90;;;11.10;99.90;;;;;;5086901;28;20051;-67
2022/09/18 09:06:27;;;;;;;1999.90;999.90;;;11.20;99.90;;;;;;5074757;28;20044;-66
2022/09/18 09:09:27;;;;;;;1999.90;999.90;;;11.10;99.90;;;;;;5063488;28;20044;-67
2022/09/18 09:12:17;;;;;;;1999.90;999.90;;;11.10;99.90;;;;;;5081472;28;20049;-66
2022/09/18 09:15:10;;;;;;;1999.90;999.90;;;11.10;99.90;;;;;;5080226;28;20054;-67
2022/09/18 09:18:09;;;;;;;1999.90;999.90;;;11.10;99.90;;;;;;5069677;28;20158;-67
2022/09/18 09:20:55;;;;;;;1999.90;999.90;;;11.00;99.90;;;;;;5032891;28;20060;-67
2022/09/18 09:23:59;;;;;;;1999.90;999.90;;;11.00;99.90;;;;;;5060141;28;20043;-66
2022/09/18 09:26:25;;;;;;;1999.90;999.90;;;11.00;99.90;;;;;;5063843;28;20131;-67
2022/09/18 09:29:28;;;;;;;1999.90;999.90;;;10.90;99.90;;;;;;5086804;28;20101;-66
2022/09/18 09:31:58;;;;;;;1999.90;999.90;;;11.00;99.90;;;;;;4986519;28;20197;-66
2022/09/18 09:35:02;;;;;;;1999.90;999.90;;;10.90;99.90;;;;;;4984523;28;20054;-67
2022/09/18 09:37:38;;;;;;;1999.90;999.90;;;10.90;99.90;;;;;;4949255;28;20079;-67
2022/09/18 09:40:11;;;;;;;1999.90;999.90;;;10.90;99.90;;;;;;4951077;28;20587;-66
2022/09/18 09:43:02;;;;;;;1999.90;999.90;;;10.80;99.90;;;;;;4943384;28;20051;-66
2022/09/18 09:45:37;;;;;;;1999.90;999.90;;;10.80;99.90;;;;;;4949971;28;20062;-66
2022/09/18 09:48:14;;;;;;;1999.90;999.90;;;10.90;99.90;;;;;;4934788;29;20054;-66
2022/09/18 09:51:01;;;;;;;1999.90;999.90;;;10.90;99.90;;;;;;4940616;29;20043;-67
2022/09/18 09:53:27;;;;;;;1999.90;999.90;;;11.00;99.90;;;;;;4927037;29;20087;-66
2022/09/18 09:56:23;;;;;;;1999.90;999.90;;;11.00;99.90;;;;;;4942142;28;20035;-66
2022/09/18 09:59:00;;;;;;;1999.90;999.90;;;11.00;99.90;;;;;;4927465;29;20146;-66
2022/09/18 10:01:37;;;;;;;1999.90;999.90;;;11.00;99.90;;;;;;4928898;29;20052;-66
2022/09/18 10:04:21;;;;;;;1999.90;999.90;;;11.00;99.90;;;;;;4928621;29;20464;-66
2022/09/18 10:07:10;;;;;;;1999.90;999.90;;;11.10;99.90;;;;;;4992234;28;20156;-66
2022/09/18 10:09:42;;;;;;;1999.90;999.90;;;11.10;99.90;;;;;;4978734;28;20057;-66
2022/09/18 10:12:17;;;;;;;1999.90;999.90;;;11.10;99.90;;;;;;5048648;28;20110;-66
2022/09/18 10:14:46;;;;;;;1999.90;999.90;;;11.20;99.90;;;;;;5040521;28;20036;-67
2022/09/18 10:17:15;;;;;;;1999.90;999.90;;;11.20;99.90;;;;;;5050129;28;20686;-66
2022/09/18 10:19:42;;;;;;;1999.90;999.90;;;11.30;99.90;;;;;;5069418;28;20068;-66
2022/09/18 10:22:12;;;;;;;1999.90;999.90;;;11.40;99.90;;;;;;5080320;28;20679;-66
2022/09/18 10:24:49;;;;;;;1999.90;999.90;;;11.40;99.90;;;;;;5067566;28;20050;-66
2022/09/18 10:27:15;;;;;;;1999.90;999.90;;;11.50;99.90;;;;;;5088824;28;20404;-67
2022/09/18 10:29:42;;;;;;;1999.90;999.90;;;11.50;99.90;;;;;;5088369;28;20043;-66
2022/09/18 10:32:11;;;;;;;1999.90;999.90;;;11.60;99.90;;;;;;5078803;28;20051;-66
2022/09/18 10:34:48;;;;;;;1999.90;999.90;;;11.60;99.90;;;;;;5088068;28;20051;-66
2022/09/18 10:37:28;;;;;;;1999.90;999.90;;;11.70;99.90;;;;;;5067993;28;20067;-67
2022/09/18 10:39:58;;;;;;;1999.90;999.90;;;11.80;99.90;;;;;;5078641;28;20051;-67
2022/09/18 10:42:35;;;;;;;1999.90;999.90;;;11.90;99.90;;;;;;5081833;28;20087;-67
2022/09/18 10:45:18;;;;;;;1999.90;999.90;;;11.90;99.90;;;;;;5047013;28;20058;-67
2022/09/18 10:47:45;;;;;;;1999.90;999.90;;;12.00;99.90;;;;;;5068312;28;20097;-67
2022/09/18 10:50:10;;;;;;;1999.90;999.90;;;12.00;99.90;;;;;;5069045;28;20606;-66
2022/09/18 10:52:41;;;;;;;1999.90;999.90;;;12.20;99.90;;;;;;5094631;28;20086;-67
2022/09/18 10:55:07;;;;;;;1999.90;999.90;;;12.30;99.90;;;;;;5075474;28;20043;-67
2022/09/18 10:57:39;;;;;;;1999.90;999.90;;;12.30;99.90;;;;;;5077806;28;20040;-67
2022/09/18 11:00:11;;;;;;;;;;;12.40;99.90;;;;;;5071770;28;20040;-67
2022/09/18 11:02:40;;;;;;;1999.90;999.90;;;12.50;99.90;;;;;;5062263;28;20393;-67
2022/09/18 11:05:53;;;;;;;1999.90;999.90;;;12.60;99.90;;;;;;5091460;28;20048;-66
2022/09/18 11:08:25;;;;;;;1999.90;999.90;;;12.70;99.90;;;;;;4979490;28;20057;-67
2022/09/18 11:10:57;;;;;;;1999.90;999.90;;;12.80;99.90;;;;;;5082400;28;20219;-66
2022/09/18 11:13:25;;;;;;;1999.90;999.90;;;12.80;99.90;;;;;;5094770;28;20039;-67
2022/09/18 11:15:55;;;;;;;1999.90;999.90;;;12.80;99.90;;;;;;5093295;28;20039;-66
2022/09/18 11:18:22;;;;;;;1999.90;999.90;;;12.90;99.90;;;;;;5099181;28;20047;-67
2022/09/18 11:20:50;;;;;;;1999.90;999.90;;;13.00;99.90;;;;;;5082070;28;20430;-66
2022/09/18 11:23:27;;;;;;;1999.90;999.90;;;13.10;99.90;;;;;;5076652;28;20043;-67
2022/09/18 11:26:14;;;;;;;1999.90;999.90;;;13.20;99.90;;;;;;5090501;28;20491;-67
2022/09/18 11:28:40;;;;;;;1999.90;999.90;;;13.30;99.90;;;;;;5066078;28;20048;-66
2022/09/18 11:31:20;;;;;;;1999.90;999.90;;;13.40;99.90;;;;;;5094758;28;20163;-67
2022/09/18 11:33:47;;;;;;;1999.90;999.90;;;13.50;99.90;;;;;;5083997;28;20052;-67
2022/09/18 11:36:21;;;;;;;1999.90;999.90;;;13.60;99.90;;;;;;5094441;28;20044;-67
2022/09/18 11:38:48;;;;;;;1999.90;999.90;;;13.60;99.90;;;;;;5065245;28;20414;-67
2022/09/18 11:41:24;;;;;;;1999.90;999.90;;;13.80;99.90;;;;;;5094458;28;20040;-67
2022/09/18 11:44:00;;;;;;;1999.90;999.90;;;13.90;99.90;;;;;;5089957;28;20040;-67
2022/09/18 11:46:35;;;;;;;1999.90;999.90;;;13.90;99.90;;;;;;5059119;28;20426;-67
2022/09/18 11:49:12;;;;;;;1999.90;999.90;;;14.00;99.90;;;;;;5093025;28;20047;-67
2022/09/18 11:51:50;;;;;;;1999.90;999.90;;;14.10;99.90;;;;;;5085454;28;20056;-67
2022/09/18 11:54:36;;;;;;;1999.90;999.90;;;14.10;99.90;;;;;;5071852;28;20097;-67
2022/09/18 11:57:09;;;;;;;1999.90;999.90;;;14.10;99.90;;;;;;5093689;28;20664;-67
2022/09/18 11:59:41;;;;;;;1999.90;999.90;;;14.10;99.90;;;;;;5068691;28;20087;-67
2022/09/18 12:02:26;;;;;;;1999.90;999.90;;;14.10;99.90;;;;;;5088512;28;20032;-66
2022/09/18 12:05:24;;;;;;;1999.90;999.90;;;14.10;99.90;;;;;;5082042;28;20135;-67
2022/09/18 12:08:00;;;;;;;1999.90;999.90;;;14.00;99.90;;;;;;5094009;28;20073;-66
2022/09/18 12:10:56;;;;;;;1999.90;999.90;;;14.00;99.90;;;;;;5074246;28;20039;-66
2022/09/18 12:13:45;;;;;;;1999.90;999.90;;;13.90;99.90;;;;;;5074055;28;20118;-66
2022/09/18 12:16:22;;;;;;;1999.90;999.90;;;13.90;99.90;;;;;;5090571;28;20135;-67
2022/09/18 12:19:11;;;;;;;1999.90;999.90;;;13.80;99.90;;;;;;5073033;28;20076;-67
2022/09/18 12:21:49;;;;;;;1999.90;999.90;;;13.80;99.90;;;;;;5064634;28;20094;-67
2022/09/18 12:24:16;;;;;;;1999.90;999.90;;;13.80;99.90;;;;;;5085589;28;20047;-66